Time;durP1;ratioP1;P1;durP2;ratioP2;P2;SDS_P1;SDS_P2;PMS_P1;PMS_P2;Temp;Humidity;BMP_temperature;BMP_pressure;BME280_temperature;BME280_humidity;BME280_pressure;Samples;Min_cycle;Max_cycle;Signal;HPM_P1;HPM_P2
2023/02/01 00:01:34;;;;;;;23.70;15.30;;;;;;;;;;5016022;28;20091;-79
2023/02/01 00:04:00;;;;;;;20.42;11.38;;;;;;;;;;5017276;28;20470;-79
2023/02/01 00:06:26;;;;;;;21.50;12.70;;;;;;;;;;5023731;28;20041;-78
2023/02/01 00:08:53;;;;;;;24.73;13.35;;;;;;;;;;5024038;28;20063;-78
2023/02/01 00:11:19;;;;;;;21.17;15.43;;;;;;;;;;5015814;28;20029;-78
2023/02/01 00:13:45;;;;;;;16.15;10.23;;;;;;;;;;5015549;28;20040;-78
2023/02/01 00:16:13;;;;;;;23.40;13.57;;;;;;;;;;5016190;28;20026;-78
2023/02/01 00:18:39;;;;;;;20.10;12.70;;;;;;;;;;5022878;28;20037;-77
2023/02/01 00:21:05;;;;;;;26.17;15.60;;;;;;;;;;5022760;28;20058;-78
2023/02/01 00:23:34;;;;;;;19.17;11.20;;;;;;;;;;5031228;28;20065;-78
2023/02/01 00:26:04;;;;;;;18.85;11.63;;;;;;;;;;5016909;28;20037;-79
2023/02/01 00:28:30;;;;;;;19.40;11.90;;;;;;;;;;5017212;28;20035;-77
2023/02/01 00:31:00;;;;;;;18.73;12.27;;;;;;;;;;5014298;28;20151;-78
2023/02/01 00:33:26;;;;;;;25.02;12.88;;;;;;;;;;5014722;28;20116;-78
2023/02/01 00:35:56;;;;;;;26.35;15.13;;;;;;;;;;5023774;28;20127;-79
2023/02/01 00:38:22;;;;;;;15.55;9.27;;;;;;;;;;5008634;28;20041;-78
2023/02/01 00:40:48;;;;;;;22.92;12.75;;;;;;;;;;5017030;28;20380;-79
2023/02/01 00:43:14;;;;;;;24.85;13.02;;;;;;;;;;5018662;28;20040;-77
2023/02/01 00:45:40;;;;;;;25.17;12.52;;;;;;;;;;5018685;28;20060;-78
2023/02/01 00:48:06;;;;;;;20.08;11.73;;;;;;;;;;5019424;28;20144;-78
2023/02/01 00:50:32;;;;;;;15.88;10.65;;;;;;;;;;5025773;28;20033;-78
2023/02/01 00:52:59;;;;;;;24.98;12.95;;;;;;;;;;5018689;28;20039;-78
2023/02/01 00:55:25;;;;;;;21.02;13.48;;;;;;;;;;5019722;28;20036;-77
2023/02/01 00:57:51;;;;;;;22.42;13.55;;;;;;;;;;5019080;28;20053;-77
2023/02/01 01:00:18;;;;;;;23.23;14.00;;;;;;;;;;5018497;28;20769;-78
2023/02/01 01:02:44;;;;;;;27.77;15.65;;;;;;;;;;5017429;28;20526;-78
2023/02/01 01:05:10;;;;;;;15.85;11.70;;;;;;;;;;5017567;28;20123;-77
2023/02/01 01:07:37;;;;;;;21.67;13.70;;;;;;;;;;4984529;28;20038;-78
2023/02/01 01:10:03;;;;;;;27.38;14.65;;;;;;;;;;5017460;28;20108;-77
2023/02/01 01:12:29;;;;;;;15.93;10.52;;;;;;;;;;5019756;28;20326;-77
2023/02/01 01:14:55;;;;;;;21.80;12.82;;;;;;;;;;5017170;28;20045;-77
2023/02/01 01:17:21;;;;;;;17.45;10.85;;;;;;;;;;4998940;28;20034;-78
2023/02/01 01:19:47;;;;;;;17.63;10.60;;;;;;;;;;5023894;28;20063;-78
2023/02/01 01:22:13;;;;;;;26.35;14.38;;;;;;;;;;5039096;28;20418;-78
2023/02/01 01:24:39;;;;;;;24.25;15.02;;;;;;;;;;5003318;28;20028;-78
2023/02/01 01:27:06;;;;;;;24.75;16.15;;;;;;;;;;5004104;28;20185;-78
2023/02/01 01:29:32;;;;;;;27.25;13.90;;;;;;;;;;5038273;28;21351;-77
2023/02/01 01:31:58;;;;;;;26.13;13.75;;;;;;;;;;5019767;28;20044;-79
2023/02/01 01:34:24;;;;;;;24.42;13.90;;;;;;;;;;5009968;28;20504;-77
2023/02/01 01:36:51;;;;;;;13.32;8.23;;;;;;;;;;5037295;28;20123;-77
2023/02/01 01:39:17;;;;;;;27.33;15.43;;;;;;;;;;5019341;28;20470;-77
2023/02/01 01:41:43;;;;;;;31.73;15.73;;;;;;;;;;5020116;28;20053;-77
2023/02/01 01:44:53;;;;;;;25.13;14.38;;;;;;;;;;5019957;28;20033;-77
2023/02/01 01:47:19;;;;;;;19.75;12.32;;;;;;;;;;4999943;28;20161;-77
2023/02/01 01:49:45;;;;;;;25.60;12.52;;;;;;;;;;5003787;28;21776;-77
2023/02/01 01:52:11;;;;;;;24.48;12.88;;;;;;;;;;5019579;28;20151;-78
2023/02/01 01:54:47;;;;;;;27.45;15.65;;;;;;;;;;5012318;28;20039;-79
2023/02/01 01:57:17;;;;;;;16.42;12.00;;;;;;;;;;5019851;28;20106;-78
2023/02/01 01:59:44;;;;;;;22.35;13.15;;;;;;;;;;5019170;28;20037;-77
2023/02/01 02:02:10;;;;;;;26.85;14.45;;;;;;;;;;5019143;28;20411;-78
2023/02/01 02:04:36;;;;;;;23.92;12.88;;;;;;;;;;5003634;28;20143;-78
2023/02/01 02:07:08;;;;;;;22.95;12.43;;;;;;;;;;5019059;28;20062;-77
2023/02/01 02:09:34;;;;;;;26.10;14.82;;;;;;;;;;5018078;28;20197;-77
2023/02/01 02:12:00;;;;;;;19.70;12.93;;;;;;;;;;5011726;28;20086;-79
2023/02/01 02:14:26;;;;;;;21.75;11.52;;;;;;;;;;5011406;28;20056;-78
2023/02/01 02:17:16;;;;;;;21.15;11.85;;;;;;;;;;5022184;28;20574;-79
2023/02/01 02:20:01;;;;;;;17.65;12.65;;;;;;;;;;5019707;28;20055;-77
2023/02/01 02:22:35;;;;;;;26.95;14.68;;;;;;;;;;5036699;28;20051;-78
2023/02/01 02:25:21;;;;;;;18.63;11.55;;;;;;;;;;5003544;28;20037;-78
2023/02/01 02:28:06;;;;;;;26.50;15.20;;;;;;;;;;5019574;28;20063;-76
2023/02/01 02:30:50;;;;;;;16.48;10.55;;;;;;;;;;5037270;28;20607;-77
2023/02/01 02:33:35;;;;;;;23.33;14.23;;;;;;;;;;5036646;28;21796;-76
2023/02/01 02:36:04;;;;;;;22.52;11.88;;;;;;;;;;5038131;28;20040;-77
2023/02/01 02:38:33;;;;;;;34.33;17.27;;;;;;;;;;5017898;28;20111;-76
2023/02/01 02:47:23;;;;;;;23.08;12.45;;;;;;;;;;5035049;28;20063;-78
2023/02/01 02:54:44;;;;;;;29.60;15.65;;;;;;;;;;5005341;28;20036;-77
2023/02/01 02:55:18;;;;;;;22.70;12.40;;;;;;;;;;5018537;28;20028;-77
2023/02/01 03:05:59;;;;;;;19.50;12.15;;;;;;;;;;5034675;28;20039;-78
2023/02/01 03:08:26;;;;;;;21.45;11.23;;;;;;;;;;5001821;28;20042;-77
2023/02/01 03:11:03;;;;;;;27.48;16.60;;;;;;;;;;5000884;28;20040;-78
2023/02/01 03:13:46;;;;;;;26.05;14.13;;;;;;;;;;5002068;28;20410;-76
2023/02/01 03:16:30;;;;;;;21.77;12.35;;;;;;;;;;5001562;28;20067;-76
2023/02/01 03:18:57;;;;;;;28.33;14.50;;;;;;;;;;5027019;28;20650;-77
2023/02/01 03:21:43;;;;;;;30.83;16.13;;;;;;;;;;5009397;28;20057;-76
2023/02/01 03:24:15;;;;;;;27.35;15.70;;;;;;;;;;5016704;28;20033;-76
2023/02/01 03:26:43;;;;;;;27.05;16.38;;;;;;;;;;5003091;28;20044;-76
2023/02/01 03:29:17;;;;;;;23.00;13.50;;;;;;;;;;5001749;28;20036;-76
2023/02/01 03:31:43;;;;;;;27.02;14.15;;;;;;;;;;5017074;28;20032;-76
2023/02/01 03:34:12;;;;;;;19.98;11.32;;;;;;;;;;5017653;28;20032;-77
2023/02/01 03:36:40;;;;;;;17.63;11.60;;;;;;;;;;5026395;28;20025;-75
2023/02/01 03:39:16;;;;;;;26.55;14.57;;;;;;;;;;5001376;28;20032;-75
2023/02/01 03:42:03;;;;;;;22.60;12.45;;;;;;;;;;5000855;28;20118;-76
2023/02/01 03:44:29;;;;;;;31.65;16.80;;;;;;;;;;5035686;28;20036;-76
2023/02/01 03:47:04;;;;;;;17.35;11.02;;;;;;;;;;5018187;28;20048;-77
2023/02/01 03:49:32;;;;;;;23.35;14.07;;;;;;;;;;5035095;28;20071;-76
2023/02/01 03:51:59;;;;;;;20.00;10.10;;;;;;;;;;5002162;28;20039;-76
2023/02/01 03:54:25;;;;;;;16.48;10.93;;;;;;;;;;5006908;28;20036;-76
2023/02/01 03:56:52;;;;;;;18.40;10.57;;;;;;;;;;5000604;28;20052;-75
2023/02/01 03:59:18;;;;;;;29.63;14.95;;;;;;;;;;5016889;28;20137;-76
2023/02/01 04:01:44;;;;;;;27.45;12.95;;;;;;;;;;5017590;28;20045;-75
2023/02/01 04:04:10;;;;;;;30.23;16.67;;;;;;;;;;5036060;28;20115;-76
2023/02/01 04:06:37;;;;;;;26.95;13.18;;;;;;;;;;5025508;28;20037;-75
2023/02/01 04:09:04;;;;;;;30.65;15.18;;;;;;;;;;5018305;28;20033;-75
2023/02/01 04:11:30;;;;;;;28.15;15.13;;;;;;;;;;5022519;28;20037;-75
2023/02/01 04:13:56;;;;;;;22.60;12.48;;;;;;;;;;5039545;28;20033;-75
2023/02/01 04:16:22;;;;;;;26.35;13.18;;;;;;;;;;5038989;28;20047;-76
2023/02/01 04:18:49;;;;;;;27.80;14.43;;;;;;;;;;5028571;28;20037;-76
2023/02/01 04:21:14;;;;;;;19.23;10.45;;;;;;;;;;5003851;28;21886;-76
2023/02/01 04:23:41;;;;;;;28.15;13.32;;;;;;;;;;5009334;28;20033;-75
2023/02/01 04:26:07;;;;;;;26.55;14.52;;;;;;;;;;5021829;28;20028;-75
2023/02/01 04:28:33;;;;;;;27.10;13.13;;;;;;;;;;5021499;28;20033;-75
2023/02/01 04:30:59;;;;;;;32.03;14.80;;;;;;;;;;5040279;28;20541;-75
2023/02/01 04:33:25;;;;;;;26.80;14.15;;;;;;;;;;5040906;28;20038;-75
2023/02/01 04:35:51;;;;;;;28.30;14.68;;;;;;;;;;5050239;28;20036;-75
2023/02/01 04:38:17;;;;;;;30.73;16.30;;;;;;;;;;5049333;28;20037;-76
2023/02/01 04:40:43;;;;;;;37.10;18.42;;;;;;;;;;5031848;28;20927;-75
2023/02/01 04:43:09;;;;;;;18.15;13.05;;;;;;;;;;5039869;28;20028;-75
2023/02/01 04:45:35;;;;;;;33.55;17.90;;;;;;;;;;5023312;28;20032;-75
2023/02/01 04:48:01;;;;;;;30.98;14.27;;;;;;;;;;5027243;28;20035;-76
2023/02/01 04:50:27;;;;;;;27.92;17.10;;;;;;;;;;5029315;28;20051;-76
2023/02/01 04:52:53;;;;;;;32.30;16.33;;;;;;;;;;5015683;28;20098;-76
2023/02/01 04:55:19;;;;;;;21.38;12.25;;;;;;;;;;5040863;28;20036;-77
2023/02/01 04:57:45;;;;;;;23.45;13.02;;;;;;;;;;5040862;28;20125;-77
2023/02/01 05:00:13;;;;;;;33.67;16.95;;;;;;;;;;5039343;28;20045;-76
2023/02/01 05:02:39;;;;;;;30.48;14.40;;;;;;;;;;5038503;28;20396;-76
2023/02/01 05:05:05;;;;;;;33.08;18.80;;;;;;;;;;5038573;28;20037;-77
2023/02/01 05:07:31;;;;;;;24.05;12.88;;;;;;;;;;5020406;28;20028;-77
2023/02/01 05:09:57;;;;;;;32.05;16.38;;;;;;;;;;5039597;28;20134;-76
2023/02/01 05:15:08;;;;;;;30.70;15.85;;;;;;;;;;5023918;28;20052;-77
2023/02/01 05:17:34;;;;;;;27.23;13.98;;;;;;;;;;5021006;28;20033;-77
2023/02/01 05:20:00;;;;;;;22.17;13.40;;;;;;;;;;5003270;28;20122;-77
2023/02/01 05:22:26;;;;;;;29.65;14.38;;;;;;;;;;5003778;28;20060;-78
2023/02/01 05:24:52;;;;;;;32.10;16.27;;;;;;;;;;5029308;28;20033;-77
2023/02/01 05:27:18;;;;;;;34.17;17.35;;;;;;;;;;5038821;28;20040;-78
2023/02/01 05:29:45;;;;;;;24.67;14.55;;;;;;;;;;5039272;28;21891;-78
2023/02/01 05:32:11;;;;;;;36.95;18.75;;;;;;;;;;5017138;28;20047;-81
2023/02/01 05:34:37;;;;;;;35.42;17.70;;;;;;;;;;5026723;28;20020;-83
2023/02/01 05:37:03;;;;;;;28.23;14.13;;;;;;;;;;5052148;28;20040;-82
2023/02/01 05:39:29;;;;;;;31.35;16.38;;;;;;;;;;5052007;28;20174;-83
2023/02/01 05:41:55;;;;;;;28.05;15.40;;;;;;;;;;5050794;28;20049;-83
2023/02/01 05:44:21;;;;;;;25.27;12.45;;;;;;;;;;5049292;28;20032;-82
2023/02/01 05:46:48;;;;;;;35.35;16.67;;;;;;;;;;5032340;28;20730;-82
2023/02/01 05:49:14;;;;;;;35.53;17.38;;;;;;;;;;5048157;28;20044;-83
2023/02/01 05:51:40;;;;;;;31.75;17.92;;;;;;;;;;5043236;28;20044;-82
2023/02/01 05:54:08;;;;;;;30.95;16.25;;;;;;;;;;5029850;28;20341;-82
2023/02/01 05:56:34;;;;;;;35.55;17.88;;;;;;;;;;5023072;28;20858;-82
2023/02/01 05:59:00;;;;;;;40.47;18.77;;;;;;;;;;5022321;28;20182;-80
2023/02/01 06:01:26;;;;;;;39.42;16.27;;;;;;;;;;5022254;28;20044;-80
2023/02/01 06:03:52;;;;;;;23.90;14.68;;;;;;;;;;5036516;28;20752;-78
2023/02/01 06:06:19;;;;;;;16.15;10.00;;;;;;;;;;5037391;28;20044;-78
2023/02/01 06:08:45;;;;;;;44.85;22.30;;;;;;;;;;5020294;28;20033;-79
2023/02/01 06:11:11;;;;;;;43.70;19.55;;;;;;;;;;5011786;28;20063;-76
2023/02/01 06:13:38;;;;;;;25.60;12.88;;;;;;;;;;5019563;28;20133;-78
2023/02/01 06:16:06;;;;;;;32.17;17.33;;;;;;;;;;5037937;28;20217;-80
2023/02/01 06:18:33;;;;;;;30.85;16.52;;;;;;;;;;5039073;28;20326;-79
2023/02/01 06:21:02;;;;;;;25.25;13.45;;;;;;;;;;5020316;28;20053;-79
2023/02/01 06:23:29;;;;;;;31.33;16.48;;;;;;;;;;5036106;28;20545;-78
2023/02/01 06:25:59;;;;;;;32.03;16.48;;;;;;;;;;5020573;28;20024;-83
2023/02/01 06:28:25;;;;;;;35.00;17.67;;;;;;;;;;5032078;28;20292;-83
2023/02/01 06:30:51;;;;;;;28.33;14.70;;;;;;;;;;5032042;28;20083;-83
2023/02/01 06:33:18;;;;;;;26.38;14.00;;;;;;;;;;5026927;28;20057;-83
2023/02/01 06:35:44;;;;;;;24.70;15.45;;;;;;;;;;5028602;28;20064;-82
2023/02/01 06:38:11;;;;;;;25.40;15.48;;;;;;;;;;5045302;28;20079;-82
2023/02/01 06:40:37;;;;;;;15.75;10.18;;;;;;;;;;5043393;28;20036;-82
2023/02/01 06:43:04;;;;;;;25.77;14.20;;;;;;;;;;5016813;28;20053;-82
2023/02/01 06:45:30;;;;;;;30.85;13.88;;;;;;;;;;5024247;28;20041;-83
2023/02/01 06:47:56;;;;;;;32.47;17.58;;;;;;;;;;5006711;28;20029;-83
2023/02/01 06:50:23;;;;;;;25.55;14.32;;;;;;;;;;5030978;28;20058;-82
2023/02/01 06:52:49;;;;;;;27.25;13.30;;;;;;;;;;5044085;28;20028;-84
2023/02/01 06:55:15;;;;;;;23.77;14.55;;;;;;;;;;5009349;28;20044;-80
2023/02/01 06:57:41;;;;;;;16.65;11.07;;;;;;;;;;5038211;28;20029;-82
2023/02/01 07:00:07;;;;;;;20.25;12.38;;;;;;;;;;5031505;28;20043;-80
2023/02/01 07:02:34;;;;;;;23.63;12.60;;;;;;;;;;4994908;28;20045;-76
2023/02/01 07:05:00;;;;;;;18.92;11.63;;;;;;;;;;5019182;28;20486;-77
2023/02/01 07:07:26;;;;;;;27.50;14.57;;;;;;;;;;5036676;28;20079;-77
2023/02/01 07:09:53;;;;;;;27.08;15.50;;;;;;;;;;5010520;28;20059;-75
2023/02/01 07:12:19;;;;;;;23.45;11.85;;;;;;;;;;5021123;28;20382;-80
2023/02/01 07:14:45;;;;;;;18.88;9.85;;;;;;;;;;5038210;28;20471;-80
2023/02/01 07:17:12;;;;;;;25.98;13.05;;;;;;;;;;5005247;28;20032;-79
2023/02/01 07:19:37;;;;;;;29.80;15.65;;;;;;;;;;5039451;28;20101;-81
2023/02/01 07:22:04;;;;;;;27.88;14.95;;;;;;;;;;5038674;28;20045;-81
2023/02/01 07:24:31;;;;;;;20.25;10.43;;;;;;;;;;5046280;28;20296;-82
2023/02/01 07:26:57;;;;;;;14.13;10.48;;;;;;;;;;5041272;28;20092;-84
2023/02/01 07:29:23;;;;;;;18.23;12.73;;;;;;;;;;5042810;28;20060;-82
2023/02/01 07:31:49;;;;;;;16.60;10.90;;;;;;;;;;5055814;28;20324;-82
2023/02/01 07:34:15;;;;;;;33.17;15.02;;;;;;;;;;5031402;28;20128;-82
2023/02/01 07:36:41;;;;;;;14.35;10.20;;;;;;;;;;5046389;28;20056;-82
2023/02/01 07:39:07;;;;;;;23.42;14.85;;;;;;;;;;5039618;28;20036;-82
2023/02/01 07:41:33;;;;;;;21.38;13.57;;;;;;;;;;5047261;28;20048;-81
2023/02/01 07:43:59;;;;;;;17.27;11.30;;;;;;;;;;5042025;28;20055;-79
2023/02/01 07:46:25;;;;;;;17.17;10.57;;;;;;;;;;5039725;28;20040;-79
2023/02/01 07:48:51;;;;;;;23.42;15.57;;;;;;;;;;5004614;28;20028;-79
2023/02/01 07:51:17;;;;;;;24.02;14.68;;;;;;;;;;5024262;28;20047;-83
2023/02/01 07:53:43;;;;;;;18.73;11.27;;;;;;;;;;5047016;28;20048;-83
2023/02/01 07:56:13;;;;;;;12.10;9.45;;;;;;;;;;5033653;28;20085;-79
2023/02/01 07:58:39;;;;;;;25.33;12.90;;;;;;;;;;5041013;28;20037;-80
2023/02/01 08:01:21;;;;;;;27.83;13.93;;;;;;;;;;5042133;28;20044;-80
2023/02/01 08:04:05;;;;;;;25.48;16.08;;;;;;;;;;5040484;28;20106;-80
2023/02/01 08:06:32;;;;;;;17.30;11.75;;;;;;;;;;5040006;28;20131;-78
2023/02/01 08:08:58;;;;;;;20.42;13.68;;;;;;;;;;5023150;28;20298;-79
2023/02/01 08:11:24;;;;;;;17.77;10.13;;;;;;;;;;5022660;28;20047;-79
2023/02/01 08:13:50;;;;;;;16.42;11.05;;;;;;;;;;5039826;28;20029;-77
2023/02/01 08:16:17;;;;;;;21.40;13.43;;;;;;;;;;5040427;28;20043;-79
2023/02/01 08:18:43;;;;;;;11.23;9.15;;;;;;;;;;5039706;28;20029;-76
2023/02/01 08:21:10;;;;;;;18.55;11.73;;;;;;;;;;5021397;28;20061;-80
2023/02/01 08:23:36;;;;;;;16.65;11.30;;;;;;;;;;5038817;28;20418;-79
2023/02/01 08:26:06;;;;;;;30.13;18.83;;;;;;;;;;5039714;28;20041;-80
2023/02/01 08:28:32;;;;;;;18.83;11.13;;;;;;;;;;5021391;28;20115;-80
2023/02/01 08:30:58;;;;;;;18.33;11.48;;;;;;;;;;5040983;28;20033;-80
2023/02/01 08:33:24;;;;;;;13.95;9.30;;;;;;;;;;5039434;28;20036;-80
2023/02/01 08:35:50;;;;;;;18.98;11.60;;;;;;;;;;5039067;28;20032;-79
2023/02/01 08:38:16;;;;;;;19.77;11.63;;;;;;;;;;5040726;28;20061;-82
2023/02/01 08:40:42;;;;;;;21.05;13.13;;;;;;;;;;5043211;28;20056;-81
2023/02/01 08:43:09;;;;;;;22.77;13.55;;;;;;;;;;5041841;28;20135;-82
2023/02/01 08:45:35;;;;;;;33.75;19.05;;;;;;;;;;5027775;28;20071;-81
2023/02/01 08:48:01;;;;;;;25.40;14.82;;;;;;;;;;5026993;28;20061;-81
2023/02/01 08:50:27;;;;;;;31.30;17.20;;;;;;;;;;5013518;28;20041;-80
2023/02/01 08:52:53;;;;;;;23.02;13.50;;;;;;;;;;5038772;28;20029;-79
2023/02/01 08:55:19;;;;;;;28.60;16.92;;;;;;;;;;5038238;28;20426;-80
2023/02/01 08:57:46;;;;;;;27.05;15.38;;;;;;;;;;5019049;28;20037;-81
2023/02/01 09:00:13;;;;;;;27.00;15.90;;;;;;;;;;5037953;28;20093;-80
2023/02/01 09:02:39;;;;;;;21.50;15.20;;;;;;;;;;5038008;28;20037;-80
2023/02/01 09:05:05;;;;;;;32.40;18.35;;;;;;;;;;5038589;28;20032;-80
2023/02/01 09:07:32;;;;;;;12.60;10.57;;;;;;;;;;5039362;28;20151;-80
2023/02/01 09:10:00;;;;;;;31.70;17.15;;;;;;;;;;5020358;28;20036;-81
2023/02/01 09:12:29;;;;;;;27.77;14.75;;;;;;;;;;5039587;28;20123;-79
2023/02/01 09:14:55;;;;;;;21.95;12.52;;;;;;;;;;5040217;28;20036;-80
2023/02/01 09:17:21;;;;;;;18.42;12.20;;;;;;;;;;5022518;28;20124;-80
2023/02/01 09:19:47;;;;;;;20.20;13.02;;;;;;;;;;5039388;28;20045;-80
2023/02/01 09:22:14;;;;;;;24.17;16.88;;;;;;;;;;5021603;28;21795;-79
2023/02/01 09:24:40;;;;;;;21.15;14.23;;;;;;;;;;5037443;28;20033;-80
2023/02/01 09:27:07;;;;;;;19.23;13.65;;;;;;;;;;5039548;28;20079;-79
2023/02/01 09:29:33;;;;;;;26.08;12.73;;;;;;;;;;5038984;28;20127;-80
2023/02/01 09:31:58;;;;;;;25.65;14.57;;;;;;;;;;5037991;28;20417;-77
2023/02/01 09:34:24;;;;;;;26.33;16.65;;;;;;;;;;5042919;28;20032;-80
2023/02/01 09:36:50;;;;;;;18.13;12.32;;;;;;;;;;5021516;28;20050;-76
2023/02/01 09:39:16;;;;;;;16.25;10.80;;;;;;;;;;5041431;28;20414;-77
2023/02/01 09:41:45;;;;;;;15.23;11.13;;;;;;;;;;5044773;28;20129;-80
2023/02/01 09:44:31;;;;;;;17.67;11.93;;;;;;;;;;5047071;28;20506;-81
2023/02/01 09:46:57;;;;;;;17.30;13.07;;;;;;;;;;5039969;28;20035;-77
2023/02/01 09:49:26;;;;;;;14.85;11.23;;;;;;;;;;5038395;28;20037;-78
2023/02/01 09:51:52;;;;;;;19.00;12.45;;;;;;;;;;5037541;28;20044;-80
2023/02/01 09:54:19;;;;;;;17.10;10.25;;;;;;;;;;5021852;28;20041;-81
2023/02/01 09:56:46;;;;;;;21.60;13.15;;;;;;;;;;5024278;28;20055;-80
2023/02/01 09:59:18;;;;;;;26.75;17.70;;;;;;;;;;5029366;28;20780;-76
2023/02/01 10:01:44;;;;;;;17.27;10.80;;;;;;;;;;5019027;28;20072;-74
2023/02/01 10:04:12;;;;;;;19.92;12.90;;;;;;;;;;5036604;28;20123;-78
2023/02/01 10:06:41;;;;;;;15.68;11.88;;;;;;;;;;5038505;28;20041;-78
2023/02/01 10:09:20;;;;;;;22.15;15.25;;;;;;;;;;5021460;28;20032;-77
2023/02/01 10:11:56;;;;;;;16.40;10.77;;;;;;;;;;5032880;28;20032;-80
2023/02/01 10:14:42;;;;;;;19.80;12.57;;;;;;;;;;5007362;28;20098;-80
2023/02/01 10:17:18;;;;;;;21.95;13.75;;;;;;;;;;5048383;28;22137;-78
2023/02/01 10:19:48;;;;;;;30.95;19.15;;;;;;;;;;5044021;28;20104;-81
2023/02/01 10:22:23;;;;;;;26.00;17.23;;;;;;;;;;5048191;28;20734;-83
2023/02/01 10:24:56;;;;;;;18.83;13.02;;;;;;;;;;5038137;28;20266;-81
2023/02/01 10:27:23;;;;;;;15.50;11.02;;;;;;;;;;5052397;28;21477;-81
2023/02/01 10:29:56;;;;;;;9.07;7.95;;;;;;;;;;5055896;28;21531;-83
2023/02/01 10:32:23;;;;;;;18.75;13.13;;;;;;;;;;5042883;28;20041;-82
2023/02/01 10:34:56;;;;;;;24.90;14.52;;;;;;;;;;5028432;28;20040;-78
2023/02/01 10:37:29;;;;;;;27.50;15.45;;;;;;;;;;5051635;28;20032;-80
2023/02/01 10:39:55;;;;;;;23.02;12.15;;;;;;;;;;5048081;28;20573;-80
2023/02/01 10:42:24;;;;;;;32.60;14.48;;;;;;;;;;5024917;28;20091;-78
2023/02/01 10:44:50;;;;;;;26.73;14.68;;;;;;;;;;5010653;28;20029;-81
2023/02/01 10:47:17;;;;;;;21.38;13.48;;;;;;;;;;5043630;28;20048;-78
2023/02/01 10:49:43;;;;;;;25.67;14.65;;;;;;;;;;5056117;28;20565;-83
2023/02/01 10:52:12;;;;;;;21.02;14.18;;;;;;;;;;5036881;28;20494;-82
2023/02/01 10:54:38;;;;;;;32.00;19.23;;;;;;;;;;5054852;28;20058;-79
2023/02/01 10:57:20;;;;;;;19.33;11.07;;;;;;;;;;5039150;28;20123;-82
2023/02/01 10:59:47;;;;;;;16.85;11.43;;;;;;;;;;5010612;28;20167;-79
2023/02/01 11:02:16;;;;;;;23.75;15.27;;;;;;;;;;5015382;28;20083;-79
2023/02/01 11:04:42;;;;;;;21.20;14.05;;;;;;;;;;5020608;28;20037;-79
2023/02/01 11:07:13;;;;;;;27.88;13.45;;;;;;;;;;5038112;28;20033;-79
2023/02/01 11:09:39;;;;;;;25.33;13.70;;;;;;;;;;5018237;28;20037;-79
2023/02/01 11:12:07;;;;;;;21.25;11.18;;;;;;;;;;5037630;28;20037;-81
2023/02/01 11:14:39;;;;;;;36.78;19.35;;;;;;;;;;5019509;28;20064;-78
2023/02/01 11:17:14;;;;;;;18.98;12.25;;;;;;;;;;5037924;28;20628;-80
2023/02/01 11:20:01;;;;;;;15.52;11.10;;;;;;;;;;5018269;28;20053;-79
2023/02/01 11:22:28;;;;;;;22.48;13.05;;;;;;;;;;5039615;28;20053;-82
2023/02/01 11:24:54;;;;;;;21.25;11.57;;;;;;;;;;5056607;28;20033;-79
2023/02/01 11:27:20;;;;;;;20.38;14.13;;;;;;;;;;5044035;28;20036;-81
2023/02/01 11:29:47;;;;;;;18.85;13.40;;;;;;;;;;5030860;28;20029;-80
2023/02/01 11:32:13;;;;;;;13.25;10.77;;;;;;;;;;5044344;28;20142;-81
2023/02/01 11:34:43;;;;;;;17.73;11.63;;;;;;;;;;5013453;28;20036;-81
2023/02/01 11:37:28;;;;;;;15.25;10.35;;;;;;;;;;5054071;28;20047;-84
2023/02/01 11:39:57;;;;;;;29.40;18.92;;;;;;;;;;5043384;28;20045;-82
2023/02/01 11:42:24;;;;;;;21.27;14.00;;;;;;;;;;5030955;28;20040;-82
2023/02/01 11:44:50;;;;;;;12.80;10.70;;;;;;;;;;5005955;28;20028;-82
2023/02/01 11:47:16;;;;;;;19.98;11.60;;;;;;;;;;5058994;28;20013;-84
2023/02/01 11:49:42;;;;;;;17.88;12.73;;;;;;;;;;5070840;28;20029;-85
2023/02/01 11:52:11;;;;;;;21.20;13.10;;;;;;;;;;5065545;28;20004;-84
2023/02/01 11:54:57;;;;;;;21.40;13.02;;;;;;;;;;5046544;28;20037;-85
2023/02/01 11:57:23;;;;;;;22.05;14.38;;;;;;;;;;5055719;28;20060;-83
2023/02/01 11:59:59;;;;;;;16.33;9.80;;;;;;;;;;5023707;28;20053;-83
2023/02/01 12:02:28;;;;;;;16.25;11.88;;;;;;;;;;5062622;28;21775;-83
2023/02/01 12:05:13;;;;;;;18.52;11.90;;;;;;;;;;5070585;28;20064;-83
2023/02/01 12:07:58;;;;;;;23.30;14.57;;;;;;;;;;5073542;28;20067;-84
2023/02/01 12:10:24;;;;;;;11.55;9.30;;;;;;;;;;5039883;28;20108;-84
2023/02/01 12:13:02;;;;;;;16.02;12.93;;;;;;;;;;5068955;28;20024;-84
2023/02/01 12:15:36;;;;;;;16.63;9.27;;;;;;;;;;5069861;28;20045;-84
2023/02/01 12:18:16;;;;;;;14.48;10.00;;;;;;;;;;5050141;28;20040;-85
2023/02/01 12:20:50;;;;;;;13.70;9.02;;;;;;;;;;5054485;28;20147;-84
2023/02/01 12:23:39;;;;;;;15.30;11.95;;;;;;;;;;5042513;28;20029;-83
2023/02/01 12:26:08;;;;;;;15.57;10.77;;;;;;;;;;5071882;28;20067;-84
2023/02/01 12:29:01;;;;;;;13.35;9.02;;;;;;;;;;5045218;28;20027;-83
2023/02/01 12:31:27;;;;;;;16.73;11.80;;;;;;;;;;5026026;28;20171;-82
2023/02/01 12:34:04;;;;;;;16.05;11.77;;;;;;;;;;5030406;28;20483;-80
2023/02/01 12:36:46;;;;;;;21.13;9.70;;;;;;;;;;5050101;28;20413;-83
2023/02/01 12:39:12;;;;;;;34.17;19.60;;;;;;;;;;5058991;28;21009;-83
2023/02/01 12:41:45;;;;;;;22.02;13.50;;;;;;;;;;5059105;28;20045;-84
2023/02/01 12:44:20;;;;;;;21.30;12.73;;;;;;;;;;5042071;28;20028;-83
2023/02/01 12:46:50;;;;;;;25.25;15.02;;;;;;;;;;5048192;28;20037;-82
2023/02/01 12:49:36;;;;;;;19.05;13.57;;;;;;;;;;5047238;28;20036;-83
2023/02/01 12:52:04;;;;;;;18.65;11.65;;;;;;;;;;5028137;28;20040;-84
2023/02/01 12:54:30;;;;;;;16.23;11.00;;;;;;;;;;5032155;28;20415;-83
2023/02/01 12:57:02;;;;;;;21.50;13.45;;;;;;;;;;5038173;28;20028;-83
2023/02/01 12:59:36;;;;;;;19.85;11.82;;;;;;;;;;5018633;28;20029;-80
2023/02/01 13:02:08;;;;;;;16.42;10.50;;;;;;;;;;5023962;28;20737;-84
2023/02/01 13:04:38;;;;;;;18.40;11.13;;;;;;;;;;5035702;28;20036;-82
2023/02/01 13:07:07;;;;;;;25.75;11.95;;;;;;;;;;5019981;28;20037;-82
2023/02/01 13:09:33;;;;;;;16.42;10.02;;;;;;;;;;5058368;28;20033;-81
2023/02/01 13:11:59;;;;;;;18.50;11.38;;;;;;;;;;5057880;28;20081;-82
2023/02/01 13:14:29;;;;;;;19.67;10.77;;;;;;;;;;5026941;28;20057;-81
2023/02/01 13:17:00;;;;;;;12.68;9.90;;;;;;;;;;5049542;28;20387;-81
2023/02/01 13:19:33;;;;;;;17.50;11.18;;;;;;;;;;5047251;28;20028;-82
2023/02/01 13:22:01;;;;;;;18.55;10.60;;;;;;;;;;5043183;28;20044;-85
2023/02/01 13:24:32;;;;;;;18.65;10.60;;;;;;;;;;5044784;28;20715;-83
2023/02/01 13:26:59;;;;;;;19.23;11.55;;;;;;;;;;5034107;28;20060;-81
2023/02/01 13:29:25;;;;;;;12.70;8.90;;;;;;;;;;5051367;28;20035;-81
2023/02/01 13:32:01;;;;;;;17.63;9.77;;;;;;;;;;5055865;28;20036;-85
2023/02/01 13:34:36;;;;;;;22.35;14.98;;;;;;;;;;5061973;28;20094;-81
2023/02/01 13:37:05;;;;;;;18.80;12.57;;;;;;;;;;5062716;28;20033;-84
2023/02/01 13:39:41;;;;;;;16.35;10.32;;;;;;;;;;5061146;28;20036;-84
2023/02/01 13:42:18;;;;;;;23.08;14.85;;;;;;;;;;5065773;28;20048;-85
2023/02/01 13:45:11;;;;;;;17.92;10.82;;;;;;;;;;5050701;28;20033;-84
2023/02/01 13:47:41;;;;;;;10.95;7.65;;;;;;;;;;5047411;28;20163;-82
2023/02/01 13:50:19;;;;;;;17.88;11.63;;;;;;;;;;5029968;28;20036;-79
2023/02/01 13:52:50;;;;;;;19.67;11.45;;;;;;;;;;5030171;28;20091;-83
2023/02/01 13:55:24;;;;;;;14.57;9.90;;;;;;;;;;5022496;28;20044;-79
2023/02/01 13:57:59;;;;;;;20.48;12.25;;;;;;;;;;5039439;28;20214;-83
2023/02/01 14:00:25;;;;;;;12.60;9.52;;;;;;;;;;5020483;28;20072;-82
2023/02/01 14:02:52;;;;;;;20.10;10.63;;;;;;;;;;5052576;28;20078;-83
2023/02/01 14:05:31;;;;;;;20.60;12.90;;;;;;;;;;5047323;28;20033;-83
2023/02/01 14:08:09;;;;;;;14.38;9.75;;;;;;;;;;5046822;28;20043;-83
2023/02/01 14:10:49;;;;;;;16.23;10.52;;;;;;;;;;5008238;28;20029;-81
2023/02/01 14:13:23;;;;;;;17.90;12.43;;;;;;;;;;5037488;28;21444;-82
2023/02/01 14:16:09;;;;;;;13.98;9.43;;;;;;;;;;5037167;28;20025;-79
2023/02/01 14:18:36;;;;;;;16.17;9.30;;;;;;;;;;5026472;28;20101;-80
2023/02/01 14:21:15;;;;;;;18.38;11.25;;;;;;;;;;5037463;28;20076;-82
2023/02/01 14:23:45;;;;;;;18.83;11.20;;;;;;;;;;5026377;28;20033;-80
2023/02/01 14:26:18;;;;;;;11.48;8.25;;;;;;;;;;5043193;28;20036;-83
2023/02/01 14:28:54;;;;;;;18.70;10.85;;;;;;;;;;5060392;28;20033;-84
2023/02/01 14:31:43;;;;;;;18.92;14.07;;;;;;;;;;5057960;28;20028;-85
2023/02/01 14:34:30;;;;;;;15.00;9.90;;;;;;;;;;5024436;28;20157;-84
2023/02/01 14:37:01;;;;;;;17.33;12.68;;;;;;;;;;5051205;28;20503;-82
2023/02/01 14:39:35;;;;;;;18.67;12.80;;;;;;;;;;5054366;28;20377;-83
2023/02/01 14:42:03;;;;;;;19.05;13.07;;;;;;;;;;5050886;28;20087;-84
2023/02/01 14:44:30;;;;;;;25.15;14.00;;;;;;;;;;5058668;28;20040;-82
2023/02/01 14:47:03;;;;;;;19.90;11.80;;;;;;;;;;5055865;28;20292;-83
2023/02/01 14:49:32;;;;;;;14.02;10.20;;;;;;;;;;5044870;28;20029;-82
2023/02/01 14:51:59;;;;;;;27.13;14.48;;;;;;;;;;5042612;28;20756;-81